Time;durP1;ratioP1;P1;durP2;ratioP2;P2;SDS_P1;SDS_P2;PMS_P1;PMS_P2;Temp;Humidity;BMP_temperature;BMP_pressure;BME280_temperature;BME280_humidity;BME280_pressure;Samples;Min_cycle;Max_cycle;Signal;HPM_P1;HPM_P2
2023/06/12 00:00:35;;;;;;;;;;;;;;;;;;5075707;28;19956;-69
2023/06/12 00:03:02;;;;;;;;;;;;;;;;;;5075948;28;19956;-70
2023/06/12 00:05:28;;;;;;;;;;;;;;;;;;5075221;28;19967;-69
2023/06/12 00:07:56;;;;;;;;;;;;;;;;;;5075315;28;20009;-69
2023/06/12 00:10:22;;;;;;;;;;;;;;;;;;5075766;28;20014;-69
2023/06/12 00:12:48;;;;;;;;;;;;;;;;;;5075109;28;20421;-69
2023/06/12 00:15:14;;;;;;;;;;;;;;;;;;5075070;28;19955;-69
2023/06/12 00:17:40;;;;;;;;;;;;;;;;;;5075277;28;20397;-69
2023/06/12 00:20:06;;;;;;;;;;;;;;;;;;5075341;28;19963;-69
2023/06/12 00:22:32;;;;;;;;;;;;;;;;;;5075211;28;20049;-69
2023/06/12 00:24:58;;;;;;;;;;;;;;;;;;5074880;28;19981;-69
2023/06/12 00:27:23;;;;;;;;;;;;;;;;;;5075124;28;19955;-69
2023/06/12 00:29:49;;;;;;;;;;;;;;;;;;5075072;28;20010;-70
2023/06/12 00:32:15;;;;;;;;;;;;;;;;;;5074681;28;19956;-69
2023/06/12 00:34:41;;;;;;;;;;;;;;;;;;5074855;28;20348;-69
2023/06/12 00:37:07;;;;;;;;;;;;;;;;;;5074902;28;19955;-69
2023/06/12 00:39:33;;;;;;;;;;;;;;;;;;5074512;28;19986;-69
2023/06/12 00:41:59;;;;;;;;;;;;;;;;;;5074832;28;20072;-70
2023/06/12 00:44:25;;;;;;;;;;;;;;;;;;5074098;28;19991;-69
2023/06/12 00:46:51;;;;;;;;;;;;;;;;;;5075025;28;19959;-70
2023/06/12 00:49:17;;;;;;;;;;;;;;;;;;5074392;28;19955;-69
2023/06/12 00:51:42;;;;;;;;;;;;;;;;;;5074632;28;20007;-69
2023/06/12 00:54:08;;;;;;;;;;;;;;;;;;5074348;28;20003;-69
2023/06/12 00:56:34;;;;;;;;;;;;;;;;;;5074546;28;19956;-70
2023/06/12 00:59:00;;;;;;;;;;;;;;;;;;5074106;28;19982;-69
2023/06/12 01:01:26;;;;;;;;;;;;;;;;;;5074185;28;19962;-70
2023/06/12 01:03:52;;;;;;;;;;;;;;;;;;5074672;28;19956;-69
2023/06/12 01:06:18;;;;;;;;;;;;;;;;;;5074081;28;19955;-69
2023/06/12 01:08:44;;;;;;;;;;;;;;;;;;5074602;28;20410;-69
2023/06/12 01:11:10;;;;;;;;;;;;;;;;;;5074305;28;20333;-69
2023/06/12 01:13:36;;;;;;;;;;;;;;;;;;5073986;28;20042;-69
2023/06/12 01:16:02;;;;;;;;;;;;;;;;;;5074215;28;19956;-69
2023/06/12 01:18:29;;;;;;;;;;;;;;;;;;5073834;28;19997;-70
2023/06/12 01:20:58;;;;;;;;;;;;;;;;;;5074429;28;19959;-69
2023/06/12 01:23:25;;;;;;;;;;;;;;;;;;5074109;28;20327;-69
2023/06/12 01:25:51;;;;;;;;;;;;;;;;;;5073820;28;20390;-69
2023/06/12 01:28:17;;;;;;;;;;;;;;;;;;5074299;28;19955;-69
2023/06/12 01:30:46;;;;;;;;;;;;;;;;;;5073084;28;19960;-69
2023/06/12 01:33:12;;;;;;;;;;;;;;;;;;5074306;28;20406;-69
2023/06/12 01:35:40;;;;;;;;;;;;;;;;;;5073579;28;19975;-69
2023/06/12 01:38:06;;;;;;;;;;;;;;;;;;5073626;28;20042;-69
2023/06/12 01:40:31;;;;;;;;;;;;;;;;;;5073677;28;20089;-69
2023/06/12 01:42:57;;;;;;;;;;;;;;;;;;5073503;28;19998;-69
2023/06/12 01:45:23;;;;;;;;;;;;;;;;;;5073919;28;19959;-69
2023/06/12 01:47:49;;;;;;;;;;;;;;;;;;5073605;28;19956;-70
2023/06/12 01:50:16;;;;;;;;;;;;;;;;;;5074153;28;20401;-70
2023/06/12 01:52:41;;;;;;;;;;;;;;;;;;5073916;28;19956;-69
2023/06/12 01:55:09;;;;;;;;;;;;;;;;;;5073533;28;19959;-69
2023/06/12 01:57:38;;;;;;;;;;;;;;;;;;5073822;28;20411;-69
2023/06/12 02:00:10;;;;;;;;;;;;;;;;;;5073432;28;20067;-69
2023/06/12 02:02:36;;;;;;;;;;;;;;;;;;5074028;28;20005;-69
2023/06/12 02:05:01;;;;;;;;;;;;;;;;;;5073690;28;19959;-69
2023/06/12 02:07:27;;;;;;;;;;;;;;;;;;5073997;28;19955;-69
2023/06/12 02:09:53;;;;;;;;;;;;;;;;;;5073403;28;19959;-69
2023/06/12 02:12:19;;;;;;;;;;;;;;;;;;5073931;28;19955;-69
2023/06/12 02:14:47;;;;;;;;;;;;;;;;;;5073380;28;19959;-69
2023/06/12 02:17:13;;;;;;;;;;;;;;;;;;5072036;28;19963;-69
2023/06/12 02:19:39;;;;;;;;;;;;;;;;;;5073815;28;19983;-69
2023/06/12 02:22:05;;;;;;;;;;;;;;;;;;5074016;28;19955;-69
2023/06/12 02:24:32;;;;;;;;;;;;;;;;;;5073487;28;19956;-69
2023/06/12 02:26:57;;;;;;;;;;;;;;;;;;5073207;28;19963;-69
2023/06/12 02:29:23;;;;;;;;;;;;;;;;;;5073192;28;19955;-70
2023/06/12 02:31:49;;;;;;;;;;;;;;;;;;5073432;28;20025;-69
2023/06/12 02:34:15;;;;;;;;;;;;;;;;;;5073233;28;19971;-69
2023/06/12 02:36:41;;;;;;;;;;;;;;;;;;5073121;28;20002;-69
2023/06/12 02:39:07;;;;;;;;;;;;;;;;;;5073579;28;20001;-70
2023/06/12 02:41:33;;;;;;;;;;;;;;;;;;5074574;28;19991;-70
2023/06/12 02:43:59;;;;;;;;;;;;;;;;;;5076668;28;19991;-70
2023/06/12 02:46:25;;;;;;;;;;;;;;;;;;5076818;28;20008;-69
2023/06/12 02:48:50;;;;;;;;;;;;;;;;;;5076718;28;20049;-69
2023/06/12 02:51:16;;;;;;;;;;;;;;;;;;5076976;28;19962;-69
2023/06/12 02:53:42;;;;;;;;;;;;;;;;;;5076622;28;19963;-69
2023/06/12 02:56:08;;;;;;;;;;;;;;;;;;5076864;28;20000;-69
2023/06/12 02:58:34;;;;;;;;;;;;;;;;;;5076502;28;20403;-69
2023/06/12 03:01:00;;;;;;;;;;;;;;;;;;5076550;28;19956;-69
2023/06/12 03:03:29;;;;;;;;;;;;;;;;;;5076788;28;19955;-69
2023/06/12 03:05:54;;;;;;;;;;;;;;;;;;5076459;28;20051;-69
2023/06/12 03:08:20;;;;;;;;;;;;;;;;;;5076880;28;20405;-69
2023/06/12 03:10:46;;;;;;;;;;;;;;;;;;5076347;28;19956;-69
2023/06/12 03:13:12;;;;;;;;;;;;;;;;;;5076857;28;20401;-69
2023/06/12 03:15:38;;;;;;;;;;;;;;;;;;5076513;28;19962;-69
2023/06/12 03:18:04;;;;;;;;;;;;;;;;;;5076135;28;19956;-69
2023/06/12 03:20:33;;;;;;;;;;;;;;;;;;5076955;28;19955;-69
2023/06/12 03:22:59;;;;;;;;;;;;;;;;;;5076120;28;19962;-69
2023/06/12 03:25:25;;;;;;;;;;;;;;;;;;5076100;28;19963;-69
2023/06/12 03:27:51;;;;;;;;;;;;;;;;;;5075990;28;19955;-69
2023/06/12 03:30:16;;;;;;;;;;;;;;;;;;5076272;28;19959;-69
2023/06/12 03:32:42;;;;;;;;;;;;;;;;;;5075966;28;20106;-69
2023/06/12 03:35:08;;;;;;;;;;;;;;;;;;5075871;28;20062;-69
2023/06/12 03:37:34;;;;;;;;;;;;;;;;;;5075919;28;20428;-70
2023/06/12 03:40:00;;;;;;;;;;;;;;;;;;5075803;28;20069;-69
2023/06/12 03:42:26;;;;;;;;;;;;;;;;;;5075872;28;19962;-69
2023/06/12 03:44:52;;;;;;;;;;;;;;;;;;5076042;28;20007;-69
2023/06/12 03:47:18;;;;;;;;;;;;;;;;;;5075705;28;19962;-69
2023/06/12 03:49:45;;;;;;;;;;;;;;;;;;5075656;28;19956;-70
2023/06/12 03:52:11;;;;;;;;;;;;;;;;;;5075439;28;19956;-69
2023/06/12 03:54:37;;;;;;;;;;;;;;;;;;5075363;28;19955;-69
2023/06/12 03:57:03;;;;;;;;;;;;;;;;;;5075455;28;19960;-69
2023/06/12 03:59:29;;;;;;;;;;;;;;;;;;5075666;28;20049;-69
2023/06/12 04:01:56;;;;;;;;;;;;;;;;;;5075389;28;19966;-69
2023/06/12 04:04:22;;;;;;;;;;;;;;;;;;5075952;28;19955;-69
2023/06/12 04:06:48;;;;;;;;;;;;;;;;;;5075301;28;20463;-69
2023/06/12 04:09:15;;;;;;;;;;;;;;;;;;5075294;28;19956;-69
2023/06/12 04:11:41;;;;;;;;;;;;;;;;;;5075833;28;20005;-69
2023/06/12 04:14:07;;;;;;;;;;;;;;;;;;5075128;28;19956;-69
2023/06/12 04:16:33;;;;;;;;;;;;;;;;;;5075058;28;19997;-69
2023/06/12 04:19:03;;;;;;;;;;;;;;;;;;5075213;28;19976;-69
2023/06/12 04:21:29;;;;;;;;;;;;;;;;;;5075570;28;19959;-69
2023/06/12 04:23:55;;;;;;;;;;;;;;;;;;5075226;28;19998;-69
2023/06/12 04:26:21;;;;;;;;;;;;;;;;;;5075167;28;19955;-69
2023/06/12 04:28:46;;;;;;;;;;;;;;;;;;5075393;28;19960;-69
2023/06/12 04:31:15;;;;;;;;;;;;;;;;;;5074776;28;20540;-69
2023/06/12 04:33:41;;;;;;;;;;;;;;;;;;5074966;28;20066;-70
2023/06/12 04:36:13;;;;;;;;;;;;;;;;;;5075275;28;19967;-69
2023/06/12 04:38:39;;;;;;;;;;;;;;;;;;5073114;28;20001;-69
2023/06/12 04:41:05;;;;;;;;;;;;;;;;;;5075180;28;20440;-69
2023/06/12 04:43:31;;;;;;;;;;;;;;;;;;5074534;28;20094;-70
2023/06/12 04:45:57;;;;;;;;;;;;;;;;;;5074612;28;19956;-69
2023/06/12 04:48:23;;;;;;;;;;;;;;;;;;5074501;28;20407;-69
2023/06/12 04:50:51;;;;;;;;;;;;;;;;;;5074438;28;19956;-69
2023/06/12 04:53:19;;;;;;;;;;;;;;;;;;5074699;28;19960;-69
2023/06/12 04:55:50;;;;;;;;;;;;;;;;;;5074355;28;20374;-70
2023/06/12 04:58:17;;;;;;;;;;;;;;;;;;5072921;28;19959;-69
2023/06/12 05:00:44;;;;;;;;;;;;;;;;;;5074825;28;19960;-69
2023/06/12 05:03:10;;;;;;;;;;;;;;;;;;5074515;28;19997;-69
2023/06/12 05:05:36;;;;;;;;;;;;;;;;;;5073155;28;19959;-69
2023/06/12 05:08:02;;;;;;;;;;;;;;;;;;5074366;28;20056;-70
2023/06/12 05:10:28;;;;;;;;;;;;;;;;;;5074385;28;19956;-69
2023/06/12 05:12:54;;;;;;;;;;;;;;;;;;5074216;28;19959;-69
2023/06/12 05:15:20;;;;;;;;;;;;;;;;;;5073964;28;19956;-69
2023/06/12 05:17:46;;;;;;;;;;;;;;;;;;5074200;28;19959;-69
2023/06/12 05:20:12;;;;;;;;;;;;;;;;;;5073949;28;20019;-69
2023/06/12 05:22:38;;;;;;;;;;;;;;;;;;5073116;28;19967;-70
2023/06/12 05:25:04;;;;;;;;;;;;;;;;;;5074141;28;19956;-69
2023/06/12 05:27:30;;;;;;;;;;;;;;;;;;5073845;28;19978;-70
2023/06/12 05:29:56;;;;;;;;;;;;;;;;;;5073801;28;19956;-69
2023/06/12 05:32:22;;;;;;;;;;;;;;;;;;5074155;28;19956;-69
2023/06/12 05:34:48;;;;;;;;;;;;;;;;;;5073696;28;20357;-69
2023/06/12 05:37:14;;;;;;;;;;;;;;;;;;5073721;28;19955;-69
2023/06/12 05:39:40;;;;;;;;;;;;;;;;;;5073643;28;19975;-69
2023/06/12 05:42:07;;;;;;;;;;;;;;;;;;5073952;28;19955;-69
2023/06/12 05:44:32;;;;;;;;;;;;;;;;;;5073215;28;20381;-69
2023/06/12 05:46:58;;;;;;;;;;;;;;;;;;5073526;28;19955;-70
2023/06/12 05:49:24;;;;;;;;;;;;;;;;;;5073878;28;19956;-69
2023/06/12 05:51:50;;;;;;;;;;;;;;;;;;5074066;28;19955;-69
2023/06/12 05:54:16;;;;;;;;;;;;;;;;;;5073510;28;20087;-69
2023/06/12 05:56:42;;;;;;;;;;;;;;;;;;5074029;28;19982;-70
2023/06/12 05:59:08;;;;;;;;;;;;;;;;;;5073384;28;20445;-69
2023/06/12 06:01:34;;;;;;;;;;;;;;;;;;5073759;28;19955;-69
2023/06/12 06:04:00;;;;;;;;;;;;;;;;;;5073520;28;19994;-69
2023/06/12 06:06:26;;;;;;;;;;;;;;;;;;5073323;28;19999;-69
2023/06/12 06:08:52;;;;;;;;;;;;;;;;;;5073707;28;19982;-69
2023/06/12 06:11:19;;;;;;;;;;;;;;;;;;5073455;28;19955;-69
2023/06/12 06:13:45;;;;;;;;;;;;;;;;;;5073378;28;19955;-69
2023/06/12 06:16:11;;;;;;;;;;;;;;;;;;5074903;28;20317;-69
2023/06/12 06:18:37;;;;;;;;;;;;;;;;;;5077559;28;19976;-69
2023/06/12 06:21:03;;;;;;;;;;;;;;;;;;5077851;28;20433;-69
2023/06/12 06:23:29;;;;;;;;;;;;;;;;;;5077540;28;20021;-69
2023/06/12 06:25:55;;;;;;;;;;;;;;;;;;5075903;28;20310;-70
2023/06/12 06:28:22;;;;;;;;;;;;;;;;;;5077174;28;19959;-70
2023/06/12 06:30:48;;;;;;;;;;;;;;;;;;5077485;28;19982;-70
2023/06/12 06:33:13;;;;;;;;;;;;;;;;;;5077072;28;19960;-70
2023/06/12 06:35:39;;;;;;;;;;;;;;;;;;5076914;28;19985;-70
2023/06/12 06:38:05;;;;;;;;;;;;;;;;;;5077569;28;20317;-70
2023/06/12 06:40:31;;;;;;;;;;;;;;;;;;5076804;28;20028;-70
2023/06/12 06:42:57;;;;;;;;;;;;;;;;;;5076590;28;20392;-70
2023/06/12 06:45:23;;;;;;;;;;;;;;;;;;5076634;28;19963;-70
2023/06/12 06:47:49;;;;;;;;;;;;;;;;;;5073985;28;19960;-72
2023/06/12 06:50:16;;;;;;;;;;;;;;;;;;5076600;28;19960;-72
2023/06/12 06:52:42;;;;;;;;;;;;;;;;;;5076607;28;20501;-69
2023/06/12 06:55:08;;;;;;;;;;;;;;;;;;5076603;28;19995;-70
2023/06/12 06:57:33;;;;;;;;;;;;;;;;;;5076895;28;19966;-69
2023/06/12 07:00:04;;;;;;;;;;;;;;;;;;5069907;28;19979;-69
2023/06/12 07:02:30;;;;;;;;;;;;;;;;;;5076884;28;19990;-69
2023/06/12 07:04:56;;;;;;;;;;;;;;;;;;5075403;28;19955;-70
2023/06/12 07:07:22;;;;;;;;;;;;;;;;;;5056660;28;20122;-69
2023/06/12 07:09:48;;;;;;;;;;;;;;;;;;5062410;28;19986;-72
2023/06/12 07:12:14;;;;;;;;;;;;;;;;;;5075969;28;19963;-72
2023/06/12 07:14:40;;;;;;;;;;;;;;;;;;5075465;28;20318;-74
2023/06/12 07:17:06;;;;;;;;;;;;;;;;;;5075836;28;20124;-74
2023/06/12 07:19:32;;;;;;;;;;;;;;;;;;5075561;28;20348;-69
2023/06/12 07:21:57;;;;;;;;;;;;;;;;;;5076741;28;20080;-69
2023/06/12 07:24:23;;;;;;;;;;;;;;;;;;5075137;28;20021;-76
2023/06/12 07:26:49;;;;;;;;;;;;;;;;;;5075986;28;20427;-76
2023/06/12 07:29:15;;;;;;;;;;;;;;;;;;5074686;28;20002;-76
2023/06/12 07:31:41;;;;;;;;;;;;;;;;;;5076261;28;20002;-69
2023/06/12 07:34:07;;;;;;;;;;;;;;;;;;5075441;28;19979;-72
2023/06/12 07:36:35;;;;;;;;;;;;;;;;;;5075228;28;19964;-74
2023/06/12 07:39:01;;;;;;;;;;;;;;;;;;5075663;28;19977;-74
2023/06/12 07:41:27;;;;;;;;;;;;;;;;;;5076092;28;19963;-70
2023/06/12 07:43:53;;;;;;;;;;;;;;;;;;5075204;28;19991;-71
2023/06/12 07:46:19;;;;;;;;;;;;;;;;;;5076276;28;20367;-73
2023/06/12 07:48:45;;;;;;;;;;;;;;;;;;5074014;28;20417;-70
2023/06/12 07:51:11;;;;;;;;;;;;;;;;;;5075377;28;20001;-70
2023/06/12 07:53:36;;;;;;;;;;;;;;;;;;5075321;28;19959;-70
2023/06/12 07:56:02;;;;;;;;;;;;;;;;;;5076030;28;19956;-69
2023/06/12 07:58:28;;;;;;;;;;;;;;;;;;5075181;28;19966;-69
2023/06/12 08:00:57;;;;;;;;;;;;;;;;;;5074708;28;19971;-69
2023/06/12 08:03:26;;;;;;;;;;;;;;;;;;5074943;28;20050;-69
2023/06/12 08:05:52;;;;;;;;;;;;;;;;;;5075695;28;20006;-68
2023/06/12 08:08:18;;;;;;;;;;;;;;;;;;5075471;28;19960;-69
2023/06/12 08:10:44;;;;;;;;;;;;;;;;;;5074446;28;20054;-69
2023/06/12 08:13:10;;;;;;;;;;;;;;;;;;5073395;28;20017;-68
2023/06/12 08:15:36;;;;;;;;;;;;;;;;;;5074880;28;20054;-64
2023/06/12 08:18:02;;;;;;;;;;;;;;;;;;5064977;28;20051;-70
2023/06/12 08:20:28;;;;;;;;;;;;;;;;;;5074901;28;20018;-72
2023/06/12 08:22:54;;;;;;;;;;;;;;;;;;5075198;28;20484;-75
2023/06/12 08:25:20;;;;;;;;;;;;;;;;;;5074066;28;20376;-72
2023/06/12 08:27:46;;;;;;;;;;;;;;;;;;5073138;28;19959;-74
2023/06/12 08:30:12;;;;;;;;;;;;;;;;;;5074491;28;20067;-74
2023/06/12 08:32:38;;;;;;;;;;;;;;;;;;5074268;28;20002;-74
2023/06/12 08:35:04;;;;;;;;;;;;;;;;;;5074618;28;19975;-74
2023/06/12 08:37:30;;;;;;;;;;;;;;;;;;5074715;28;19956;-74
2023/06/12 08:39:56;;;;;;;;;;;;;;;;;;5074371;28;20467;-74
2023/06/12 08:42:22;;;;;;;;;;;;;;;;;;5073156;28;19960;-75
2023/06/12 08:44:48;;;;;;;;;;;;;;;;;;5074877;28;19960;-74
2023/06/12 08:47:14;;;;;;;;;;;;;;;;;;5074467;28;19960;-75
2023/06/12 08:49:40;;;;;;;;;;;;;;;;;;5075029;28;20436;-75
2023/06/12 08:52:06;;;;;;;;;;;;;;;;;;5073290;28;19959;-68
2023/06/12 08:54:32;;;;;;;;;;;;;;;;;;5068503;28;19960;-71
2023/06/12 08:56:58;;;;;;;;;;;;;;;;;;5062751;28;19970;-69
2023/06/12 08:59:24;;;;;;;;;;;;;;;;;;5065964;28;19976;-69
2023/06/12 09:01:53;;;;;;;;;;;;;;;;;;5071954;28;19959;-70
2023/06/12 09:04:19;;;;;;;;;;;;;;;;;;5073412;28;20009;-70
2023/06/12 09:06:45;;;;;;;;;;;;;;;;;;5074206;28;19960;-70
2023/06/12 09:09:11;;;;;;;;;;;;;;;;;;5071874;28;20002;-70
2023/06/12 09:11:37;;;;;;;;;;;;;;;;;;5073898;28;19960;-69
2023/06/12 09:14:03;;;;;;;;;;;;;;;;;;5073240;28;20403;-73
2023/06/12 09:16:29;;;;;;;;;;;;;;;;;;5072594;28;19960;-72
2023/06/12 09:18:55;;;;;;;;;;;;;;;;;;5073193;28;19990;-75
2023/06/12 09:21:21;;;;;;;;;;;;;;;;;;5074072;28;20057;-73
2023/06/12 09:23:47;;;;;;;;;;;;;;;;;;5074163;28;20005;-74
2023/06/12 09:26:15;;;;;;;;;;;;;;;;;;5073368;28;20318;-74
2023/06/12 09:28:41;;;;;;;;;;;;;;;;;;5073870;28;19955;-74
2023/06/12 09:31:07;;;;;;;;;;;;;;;;;;5073289;28;19967;-71
2023/06/12 09:33:35;;;;;;;;;;;;;;;;;;5073751;28;20333;-76
2023/06/12 09:36:01;;;;;;;;;;;;;;;;;;5073401;28;19963;-75
2023/06/12 09:38:27;;;;;;;;;;;;;;;;;;5073323;28;19964;-73
2023/06/12 09:40:53;;;;;;;;;;;;;;;;;;5073305;28;19963;-69
2023/06/12 09:43:19;;;;;;;;;;;;;;;;;;5073022;28;20322;-71
2023/06/12 09:45:45;;;;;;;;;;;;;;;;;;5073305;28;19963;-69
2023/06/12 09:48:12;;;;;;;;;;;;;;;;;;5072274;28;20393;-69
2023/06/12 09:50:38;;;;;;;;;;;;;;;;;;5061244;28;19960;-67
2023/06/12 09:53:03;;;;;;;;;;;;;;;;;;5064764;28;19970;-73
2023/06/12 09:55:30;;;;;;;;;;;;;;;;;;5074009;28;19956;-72
2023/06/12 09:57:56;;;;;;;;;;;;;;;;;;5073195;28;19963;-71
2023/06/12 10:00:23;;;;;;;;;;;;;;;;;;5073021;28;20062;-72
2023/06/12 10:02:50;;;;;;;;;;;;;;;;;;5072991;28;20329;-75
2023/06/12 10:05:16;;;;;;;;;;;;;;;;;;5073104;28;20005;-75
2023/06/12 10:07:42;;;;;;;;;;;;;;;;;;5072635;28;19963;-71
2023/06/12 10:10:08;;;;;;;;;;;;;;;;;;5073036;28;19963;-72
2023/06/12 10:12:34;;;;;;;;;;;;;;;;;;5072934;28;19967;-74
2023/06/12 10:15:00;;;;;;;;;;;;;;;;;;5071400;28;19966;-70
2023/06/12 10:17:26;;;;;;;;;;;;;;;;;;5072745;28;19959;-73
2023/06/12 10:19:52;;;;;;;;;;;;;;;;;;5061910;28;20353;-71
2023/06/12 10:22:18;;;;;;;;;;;;;;;;;;5072131;28;20002;-70
2023/06/12 10:24:44;;;;;;;;;;;;;;;;;;5073524;28;20005;-70
2023/06/12 10:27:11;;;;;;;;;;;;;;;;;;5072878;28;19967;-69
2023/06/12 10:29:37;;;;;;;;;;;;;;;;;;5070016;28;20326;-70
2023/06/12 10:32:03;;;;;;;;;;;;;;;;;;5072918;28;19967;-70
2023/06/12 10:34:31;;;;;;;;;;;;;;;;;;5070779;28;20459;-71
2023/06/12 10:36:56;;;;;;;;;;;;;;;;;;5073718;28;20009;-71
2023/06/12 10:39:24;;;;;;;;;;;;;;;;;;5073329;28;19976;-70
2023/06/12 10:41:50;;;;;;;;;;;;;;;;;;5073429;28;19955;-71
2023/06/12 10:44:15;;;;;;;;;;;;;;;;;;5072652;28;20029;-70
2023/06/12 10:46:42;;;;;;;;;;;;;;;;;;5073595;28;20317;-71
2023/06/12 10:49:08;;;;;;;;;;;;;;;;;;5073394;28;19963;-71
2023/06/12 10:51:34;;;;;;;;;;;;;;;;;;5072982;28;19960;-70
2023/06/12 10:54:03;;;;;;;;;;;;;;;;;;5073273;28;19955;-70
2023/06/12 10:56:29;;;;;;;;;;;;;;;;;;5072971;28;19956;-70
2023/06/12 10:58:55;;;;;;;;;;;;;;;;;;5071625;28;20068;-70
2023/06/12 11:01:21;;;;;;;;;;;;;;;;;;5072985;28;19956;-71
2023/06/12 11:03:47;;;;;;;;;;;;;;;;;;5076242;28;20005;-70
2023/06/12 11:06:13;;;;;;;;;;;;;;;;;;5076994;28;19960;-70
2023/06/12 11:08:40;;;;;;;;;;;;;;;;;;5076464;28;19955;-70
2023/06/12 11:11:06;;;;;;;;;;;;;;;;;;5076648;28;19995;-70
2023/06/12 11:13:32;;;;;;;;;;;;;;;;;;5076291;28;19987;-70
2023/06/12 11:15:58;;;;;;;;;;;;;;;;;;5076571;28;20034;-70
2023/06/12 11:18:24;;;;;;;;;;;;;;;;;;5076168;28;20009;-70
2023/06/12 11:20:50;;;;;;;;;;;;;;;;;;5076541;28;19956;-70
2023/06/12 11:23:15;;;;;;;;;;;;;;;;;;5076999;28;19956;-70
2023/06/12 11:25:42;;;;;;;;;;;;;;;;;;5076155;28;19962;-70
2023/06/12 11:28:08;;;;;;;;;;;;;;;;;;5076667;28;19962;-70
2023/06/12 11:30:33;;;;;;;;;;;;;;;;;;5076070;28;19959;-70
2023/06/12 11:33:00;;;;;;;;;;;;;;;;;;5076278;28;19955;-70
2023/06/12 11:35:26;;;;;;;;;;;;;;;;;;5075961;28;20494;-70
2023/06/12 11:37:52;;;;;;;;;;;;;;;;;;5075950;28;20046;-71
2023/06/12 11:40:18;;;;;;;;;;;;;;;;;;5075910;28;20070;-71
2023/06/12 11:42:44;;;;;;;;;;;;;;;;;;5075866;28;20034;-71
2023/06/12 11:45:10;;;;;;;;;;;;;;;;;;5076088;28;19956;-70
2023/06/12 11:47:36;;;;;;;;;;;;;;;;;;5076009;28;19983;-70
2023/06/12 11:50:02;;;;;;;;;;;;;;;;;;5074410;28;20421;-71
2023/06/12 11:52:28;;;;;;;;;;;;;;;;;;5076159;28;19963;-70
2023/06/12 11:54:54;;;;;;;;;;;;;;;;;;5075565;28;20337;-70
2023/06/12 11:57:20;;;;;;;;;;;;;;;;;;5075758;28;19995;-71
2023/06/12 11:59:46;;;;;;;;;;;;;;;;;;5075413;28;20445;-70
2023/06/12 12:02:12;;;;;;;;;;;;;;;;;;5076014;28;19955;-71
2023/06/12 12:04:38;;;;;;;;;;;;;;;;;;5075347;28;19978;-70
2023/06/12 12:07:04;;;;;;;;;;;;;;;;;;5075351;28;19966;-70
2023/06/12 12:09:31;;;;;;;;;;;;;;;;;;5075307;28;20481;-70
2023/06/12 12:11:57;;;;;;;;;;;;;;;;;;5075597;28;19994;-70
2023/06/12 12:14:22;;;;;;;;;;;;;;;;;;5074531;28;19959;-70
2023/06/12 12:16:48;;;;;;;;;;;;;;;;;;5075043;28;20472;-70
2023/06/12 12:19:14;;;;;;;;;;;;;;;;;;5073881;28;20074;-74
2023/06/12 12:21:40;;;;;;;;;;;;;;;;;;5075561;28;19956;-77
2023/06/12 12:24:06;;;;;;;;;;;;;;;;;;5074677;28;20344;-78
2023/06/12 12:26:33;;;;;;;;;;;;;;;;;;5074176;28;19990;-76
2023/06/12 12:28:59;;;;;;;;;;;;;;;;;;5074074;28;20388;-75
2023/06/12 12:31:25;;;;;;;;;;;;;;;;;;5074772;28;19960;-72
2023/06/12 12:33:51;;;;;;;;;;;;;;;;;;5074706;28;20021;-77
2023/06/12 12:36:17;;;;;;;;;;;;;;;;;;5074162;28;19964;-76
2023/06/12 12:38:43;;;;;;;;;;;;;;;;;;5075145;28;20397;-78
2023/06/12 12:41:09;;;;;;;;;;;;;;;;;;5074050;28;20551;-69
2023/06/12 12:43:35;;;;;;;;;;;;;;;;;;5074481;28;20035;-69
2023/06/12 12:46:01;;;;;;;;;;;;;;;;;;5074076;28;20017;-69
2023/06/12 12:48:27;;;;;;;;;;;;;;;;;;5072709;28;20463;-70
2023/06/12 12:50:53;;;;;;;;;;;;;;;;;;5064995;28;20021;-70
2023/06/12 12:53:19;;;;;;;;;;;;;;;;;;5054541;28;19956;-71
2023/06/12 12:55:45;;;;;;;;;;;;;;;;;;5074683;28;19998;-70
2023/06/12 12:58:11;;;;;;;;;;;;;;;;;;5072563;28;19960;-70
2023/06/12 13:00:37;;;;;;;;;;;;;;;;;;5067807;28;19979;-70
2023/06/12 13:03:03;;;;;;;;;;;;;;;;;;5074219;28;20417;-70
2023/06/12 13:05:29;;;;;;;;;;;;;;;;;;5074158;28;19956;-70
2023/06/12 13:07:55;;;;;;;;;;;;;;;;;;5073092;28;20462;-75
2023/06/12 13:10:21;;;;;;;;;;;;;;;;;;5071873;28;19959;-79
2023/06/12 13:12:48;;;;;;;;;;;;;;;;;;5073599;28;19960;-79
2023/06/12 13:15:14;;;;;;;;;;;;;;;;;;5073124;28;19986;-76
2023/06/12 13:17:40;;;;;;;;;;;;;;;;;;5074565;28;20078;-67
2023/06/12 13:20:06;;;;;;;;;;;;;;;;;;5069718;28;19986;-79
2023/06/12 13:22:32;;;;;;;;;;;;;;;;;;5074785;28;19956;-71
2023/06/12 13:24:58;;;;;;;;;;;;;;;;;;5070577;28;19967;-71
2023/06/12 13:27:24;;;;;;;;;;;;;;;;;;5073184;28;20344;-71
2023/06/12 13:29:50;;;;;;;;;;;;;;;;;;5073676;28;19956;-71
2023/06/12 13:32:16;;;;;;;;;;;;;;;;;;5074063;28;19962;-70
2023/06/12 13:34:41;;;;;;;;;;;;;;;;;;5073694;28;19972;-71
2023/06/12 13:37:07;;;;;;;;;;;;;;;;;;5073232;28;19964;-69
2023/06/12 13:39:33;;;;;;;;;;;;;;;;;;5073172;28;20496;-72
2023/06/12 13:41:59;;;;;;;;;;;;;;;;;;5067836;28;20046;-73
2023/06/12 13:44:25;;;;;;;;;;;;;;;;;;5072703;28;20549;-72
2023/06/12 13:46:51;;;;;;;;;;;;;;;;;;5063138;28;19966;-70
2023/06/12 13:49:17;;;;;;;;;;;;;;;;;;5066287;28;20425;-70
2023/06/12 13:51:43;;;;;;;;;;;;;;;;;;5064731;28;19965;-71
2023/06/12 13:54:09;;;;;;;;;;;;;;;;;;5071360;28;20013;-78
2023/06/12 13:56:35;;;;;;;;;;;;;;;;;;5072797;28;20368;-72
2023/06/12 13:59:01;;;;;;;;;;;;;;;;;;5071464;28;20025;-68
2023/06/12 14:01:27;;;;;;;;;;;;;;;;;;5072800;28;20433;-72
2023/06/12 14:03:53;;;;;;;;;;;;;;;;;;5069012;28;19959;-71
2023/06/12 14:06:20;;;;;;;;;;;;;;;;;;5071937;28;20042;-73
2023/06/12 14:08:45;;;;;;;;;;;;;;;;;;5057539;28;19960;-83
2023/06/12 14:11:11;;;;;;;;;;;;;;;;;;5071124;28;19960;-82
2023/06/12 14:13:37;;;;;;;;;;;;;;;;;;5071398;28;20455;-82
2023/06/12 14:16:03;;;;;;;;;;;;;;;;;;5073106;28;19999;-81
2023/06/12 14:18:29;;;;;;;;;;;;;;;;;;5072499;28;20021;-76
2023/06/12 14:20:55;;;;;;;;;;;;;;;;;;5072570;28;20353;-71
2023/06/12 14:23:21;;;;;;;;;;;;;;;;;;5072273;28;19959;-69
2023/06/12 14:25:47;;;;;;;;;;;;;;;;;;5071981;28;19967;-72
2023/06/12 14:28:12;;;;;;;;;;;;;;;;;;5072181;28;19963;-75
2023/06/12 14:30:38;;;;;;;;;;;;;;;;;;5071655;28;20038;-72
2023/06/12 14:33:04;;;;;;;;;;;;;;;;;;5071282;28;19970;-72
2023/06/12 14:35:30;;;;;;;;;;;;;;;;;;5072379;28;19975;-74
2023/06/12 14:37:56;;;;;;;;;;;;;;;;;;5074735;28;19963;-73
2023/06/12 14:40:22;;;;;;;;;;;;;;;;;;5076136;28;20341;-72
2023/06/12 14:42:48;;;;;;;;;;;;;;;;;;5074975;28;20009;-71
2023/06/12 14:45:14;;;;;;;;;;;;;;;;;;5076198;28;20058;-74
2023/06/12 14:47:40;;;;;;;;;;;;;;;;;;5075994;28;19970;-72
2023/06/12 14:50:06;;;;;;;;;;;;;;;;;;5075964;28;20432;-73
2023/06/12 14:52:32;;;;;;;;;;;;;;;;;;5075522;28;19997;-72
2023/06/12 14:54:57;;;;;;;;;;;;;;;;;;5076293;28;19963;-71
2023/06/12 14:57:23;;;;;;;;;;;;;;;;;;5075704;28;19971;-74
2023/06/12 14:59:49;;;;;;;;;;;;;;;;;;5076183;28;20026;-74
2023/06/12 15:02:15;;;;;;;;;;;;;;;;;;5075575;28;19971;-74
2023/06/12 15:04:41;;;;;;;;;;;;;;;;;;5075129;28;19991;-72
2023/06/12 15:07:07;;;;;;;;;;;;;;;;;;5075870;28;19966;-78
2023/06/12 15:09:33;;;;;;;;;;;;;;;;;;5074580;28;20105;-76
2023/06/12 15:11:59;;;;;;;;;;;;;;;;;;5076002;28;19962;-77
2023/06/12 15:14:25;;;;;;;;;;;;;;;;;;5076308;28;20413;-78
2023/06/12 15:16:51;;;;;;;;;;;;;;;;;;5076780;28;20364;-78
2023/06/12 15:19:17;;;;;;;;;;;;;;;;;;5076508;28;19989;-78
2023/06/12 15:21:43;;;;;;;;;;;;;;;;;;5076824;28;20046;-77
2023/06/12 15:24:08;;;;;;;;;;;;;;;;;;5076541;28;20435;-76
2023/06/12 15:26:34;;;;;;;;;;;;;;;;;;5076405;28;19955;-78
2023/06/12 15:29:00;;;;;;;;;;;;;;;;;;5076012;28;20314;-76
2023/06/12 15:31:26;;;;;;;;;;;;;;;;;;5076029;28;19956;-78
2023/06/12 15:33:52;;;;;;;;;;;;;;;;;;5076143;28;19971;-77
2023/06/12 15:36:18;;;;;;;;;;;;;;;;;;5075950;28;20410;-76
2023/06/12 15:38:44;;;;;;;;;;;;;;;;;;5076161;28;20097;-77
2023/06/12 15:41:10;;;;;;;;;;;;;;;;;;5075939;28;19956;-76
2023/06/12 15:43:36;;;;;;;;;;;;;;;;;;5075724;28;19998;-76
2023/06/12 15:46:02;;;;;;;;;;;;;;;;;;5075616;28;19962;-77
2023/06/12 15:48:28;;;;;;;;;;;;;;;;;;5075000;28;20005;-78
2023/06/12 15:50:54;;;;;;;;;;;;;;;;;;5075534;28;19963;-78
2023/06/12 15:53:20;;;;;;;;;;;;;;;;;;5076226;28;19963;-77
2023/06/12 15:55:46;;;;;;;;;;;;;;;;;;5075894;28;20363;-77
2023/06/12 15:58:12;;;;;;;;;;;;;;;;;;5075835;28;19956;-77
2023/06/12 16:00:38;;;;;;;;;;;;;;;;;;5075418;28;20025;-78
2023/06/12 16:03:03;;;;;;;;;;;;;;;;;;5075993;28;19966;-77
2023/06/12 16:05:29;;;;;;;;;;;;;;;;;;5075450;28;20011;-78
2023/06/12 16:07:55;;;;;;;;;;;;;;;;;;5075950;28;20408;-77
2023/06/12 16:10:22;;;;;;;;;;;;;;;;;;5075581;28;19963;-78
2023/06/12 16:12:48;;;;;;;;;;;;;;;;;;5073744;28;19966;-77
2023/06/12 16:15:14;;;;;;;;;;;;;;;;;;5075457;28;19960;-77
2023/06/12 16:17:40;;;;;;;;;;;;;;;;;;5075149;28;20379;-77
2023/06/12 16:20:06;;;;;;;;;;;;;;;;;;5075051;28;20070;-77
2023/06/12 16:22:31;;;;;;;;;;;;;;;;;;5075882;28;20321;-77
2023/06/12 16:24:57;;;;;;;;;;;;;;;;;;5075019;28;19959;-78
2023/06/12 16:27:23;;;;;;;;;;;;;;;;;;5075531;28;20046;-77
2023/06/12 16:29:49;;;;;;;;;;;;;;;;;;5074908;28;19962;-78
2023/06/12 16:32:15;;;;;;;;;;;;;;;;;;5075437;28;20408;-77
2023/06/12 16:34:41;;;;;;;;;;;;;;;;;;5075056;28;19971;-76
2023/06/12 16:37:07;;;;;;;;;;;;;;;;;;5074784;28;20306;-77